Despina — SVDK — position and weather

sailwx.info

Track history (hours):
 
Tides and Currents Weather Stations Pressure Air Temp Water Temp Dewpoint Dewpoint Depression Visibility Wind Speed Wind Dir Waves Ship Positions

Despina

Last reported at 2014-Aug-29 02:22 UTC. Time now 2014-Aug-29 05:33 UTC.
Position N 36°05' W 005°19'.

Length 229 m; draft 11.4 m.

Type: Cargo ship. MMSI: 239469000.

Date/timePositionNaut miles runAvg speedWind from/ knotsBaromVisibWave heightAir tempDewpointWater temp
2014-Aug-29 02:22N 36°05' W 005°19'5 0.2
2014-Aug-28 00:32N 36°01' W 005°16'22413.2
2014-Aug-27 07:33N 33°32' W 008°41'1313.3
2014-Aug-27 06:33N 33°23' W 008°52'1313.1
2014-Aug-27 05:33N 33°14' W 009°03'1412.9
2014-Aug-27 04:26N 33°03' W 009°15'2513.0
2014-Aug-27 02:33N 32°45' W 009°35'1413.2
2014-Aug-27 01:31N 32°35' W 009°46'1512.9
2014-Aug-27 00:21N 32°24' W 009°58'  
Track history (hours):
 
Tides and Currents Weather Stations Pressure Air Temp Water Temp Dewpoint Dewpoint Depression Visibility Wind Speed Wind Dir Waves Ship Positions

Despina

Last reported at 2014-Aug-29 02:22 UTC. Time now 2014-Aug-29 05:33 UTC.
Position N 36°05' W 005°19'.

Length 229 m; draft 11.4 m.

Type: Cargo ship. MMSI: 239469000.

Date/timePositionNaut miles runAvg speedWind from/ knotsBaromVisibWave heightAir tempDewpointWater temp
2014-Aug-29 02:22N 36°05' W 005°19'5 0.2
2014-Aug-28 00:32N 36°01' W 005°16'22413.2
2014-Aug-27 07:33N 33°32' W 008°41'1313.3
2014-Aug-27 06:33N 33°23' W 008°52'1313.1
2014-Aug-27 05:33N 33°14' W 009°03'1412.9
2014-Aug-27 04:26N 33°03' W 009°15'2513.0
2014-Aug-27 02:33N 32°45' W 009°35'1413.2
2014-Aug-27 01:31N 32°35' W 009°46'1512.9
2014-Aug-27 00:21N 32°24' W 009°58'  

Dump ship's entire track history